Terminal Aerodrome Forecast
Issued by NWS

Home | Current Version | Previous Version | Text Only | Print | Product List | Glossary On
Versions: 1 2 3 4 5 6 7 8 9 10 11 12 13 14 15 16 17 18 19 20
000
FTUS46 KSGX 310859 AAA
TAFCRQ
TAF AMD
KCRQ 310859Z 3109/0106 14005KT P6SM OVC009
     FM311700 23008KT P6SM SKC
     FM010100 VRB04KT P6SM OVC017
      TEMPO 0101/0103 SCT017=

USA.gov is the U.S. government's official web portal to all federal, state and local government web resources and services.